Time;durP1;ratioP1;P1;durP2;ratioP2;P2;SDS_P1;SDS_P2;PMS_P1;PMS_P2;Temp;Humidity;BMP_temperature;BMP_pressure;BME280_temperature;BME280_humidity;BME280_pressure;Samples;Min_cycle;Max_cycle;Signal;HPM_P1;HPM_P2
2021/03/19 00:01:59;;;;;;;36.75;17.45;;;;;;;1.29;87.08;97150.56;5016688;28;20025;-76
2021/03/19 00:04:25;;;;;;;30.33;13.85;;;;;;;1.30;86.59;97152.25;5016590;28;20461;-75
2021/03/19 00:06:50;;;;;;;24.40;12.30;;;;;;;1.39;83.56;97151.97;5016671;28;20031;-76
2021/03/19 00:09:16;;;;;;;21.88;11.55;;;;;;;1.38;86.98;97149.41;5016254;28;20026;-75
2021/03/19 00:11:41;;;;;;;20.35;11.35;;;;;;;1.21;88.59;97143.78;5034251;28;20032;-75
2021/03/19 00:14:09;;;;;;;21.77;11.77;;;;;;;1.11;89.19;97135.31;5034081;28;20041;-75
2021/03/19 00:16:36;;;;;;;24.58;12.00;;;;;;;1.08;88.59;97135.41;5016872;28;20033;-75
2021/03/19 00:19:02;;;;;;;20.23;11.07;;;;;;;1.07;88.32;97139.84;5034087;28;20118;-75
2021/03/19 00:21:28;;;;;;;21.55;11.35;;;;;;;1.11;88.15;97139.75;5033901;28;20021;-75
2021/03/19 00:23:53;;;;;;;18.40;9.65;;;;;;;1.16;84.12;97138.69;5033969;28;20017;-76
2021/03/19 00:26:19;;;;;;;16.75;9.30;;;;;;;1.34;81.97;97140.72;5016087;28;20037;-75
2021/03/19 00:28:45;;;;;;;20.13;9.20;;;;;;;1.44;79.05;97139.53;5016335;28;20405;-75
2021/03/19 00:31:10;;;;;;;18.98;9.93;;;;;;;1.60;78.42;97138.09;5016046;28;20041;-75
2021/03/19 00:33:36;;;;;;;29.13;14.25;;;;;;;1.60;81.52;97143.34;5016065;28;20041;-75
2021/03/19 00:36:02;;;;;;;40.90;18.67;;;;;;;1.32;87.42;97142.56;5016125;28;20464;-75
2021/03/19 00:38:27;;;;;;;40.22;19.92;;;;;;;1.17;90.52;97134.28;5033475;28;20021;-75
2021/03/19 00:40:53;;;;;;;34.33;18.40;;;;;;;1.05;91.69;97141.63;5016093;28;20033;-76
2021/03/19 00:43:19;;;;;;;36.97;18.20;;;;;;;0.88;93.83;97143.06;5033386;28;20040;-75
2021/03/19 00:45:44;;;;;;;41.45;19.75;;;;;;;0.78;95.11;97128.47;4999429;28;20545;-75
2021/03/19 00:48:11;;;;;;;46.00;20.88;;;;;;;0.71;96.13;97130.41;5015931;28;20076;-75
2021/03/19 00:50:40;;;;;;;47.00;20.55;;;;;;;0.77;96.51;97145.19;5015928;28;20555;-75
2021/03/19 00:53:07;;;;;;;42.70;20.52;;;;;;;0.77;96.71;97134.66;5015872;28;20025;-76
2021/03/19 00:55:33;;;;;;;37.72;19.70;;;;;;;0.86;95.97;97143.09;5015574;28;20473;-77
2021/03/19 00:57:59;;;;;;;44.15;20.63;;;;;;;0.93;96.67;97143.78;5015414;28;20060;-75
2021/03/19 01:00:26;;;;;;;43.38;21.02;;;;;;;0.94;96.40;97138.50;4998127;28;20064;-74
2021/03/19 01:02:52;;;;;;;45.38;22.63;;;;;;;0.87;97.47;97136.06;5015783;28;20025;-74
2021/03/19 01:05:22;;;;;;;52.50;25.40;;;;;;;1.03;97.37;97137.34;5015186;28;20104;-75
2021/03/19 01:07:47;;;;;;;56.30;25.10;;;;;;;1.07;96.47;97128.44;5015593;28;20057;-75
2021/03/19 01:10:19;;;;;;;52.50;25.80;;;;;;;1.06;96.35;97131.97;5032780;28;20088;-75
2021/03/19 01:12:44;;;;;;;52.55;25.90;;;;;;;1.17;96.08;97139.56;5015518;28;20026;-75
2021/03/19 01:15:11;;;;;;;45.50;23.67;;;;;;;1.08;96.64;97131.00;5033215;28;20034;-75
2021/03/19 01:17:37;;;;;;;48.97;25.15;;;;;;;1.16;97.32;97153.63;5007316;28;20029;-75
2021/03/19 01:20:09;;;;;;;55.67;26.42;;;;;;;1.17;96.66;97145.66;5032981;28;20021;-75
2021/03/19 01:22:35;;;;;;;58.50;25.88;;;;;;;1.16;95.47;97140.44;5015048;28;20029;-75
2021/03/19 01:25:01;;;;;;;48.63;22.05;;;;;;;1.16;93.86;97133.41;5032873;28;20036;-75
2021/03/19 01:27:26;;;;;;;41.72;20.17;;;;;;;1.21;93.99;97142.03;5032578;28;20041;-75
2021/03/19 01:29:52;;;;;;;37.05;18.80;;;;;;;1.21;92.97;97141.16;5032646;28;20029;-75
2021/03/19 01:32:17;;;;;;;39.65;19.80;;;;;;;1.32;94.54;97154.88;5014753;28;20125;-76
2021/03/19 01:34:43;;;;;;;40.67;20.48;;;;;;;1.34;95.14;97158.28;5015005;28;20068;-75
2021/03/19 01:37:08;;;;;;;39.97;21.38;;;;;;;1.31;94.03;97154.00;5032602;28;20034;-75
2021/03/19 01:39:34;;;;;;;41.45;21.95;;;;;;;1.31;94.06;97151.38;5032369;28;20125;-76
2021/03/19 01:42:01;;;;;;;38.30;18.40;;;;;;;1.21;93.82;97152.56;5014816;28;20025;-75
2021/03/19 01:44:55;;;;;;;45.40;22.67;;;;;;;1.23;93.97;97144.63;5014662;28;20029;-75
2021/03/19 01:47:57;;;;;;;45.00;22.30;;;;;;;1.18;94.88;97147.38;5032106;28;20145;-75
2021/03/19 01:51:00;;;;;;;48.65;22.98;;;;;;;1.30;96.21;97152.25;5032024;28;20129;-75
2021/03/19 01:54:02;;;;;;;41.20;21.27;;;;;;;1.26;97.00;97150.63;5032001;28;20090;-74
2021/03/19 01:57:04;;;;;;;31.67;15.98;;;;;;;1.25;96.72;97146.28;5032088;28;20097;-74
2021/03/19 02:00:07;;;;;;;37.17;19.67;;;;;;;1.26;96.86;97140.09;5031913;28;20037;-75
2021/03/19 02:03:10;;;;;;;35.95;17.85;;;;;;;1.30;95.33;97133.81;5031867;28;20055;-75
2021/03/19 02:06:13;;;;;;;41.40;20.60;;;;;;;1.24;93.90;97136.66;5031887;28;20429;-75
2021/03/19 02:09:15;;;;;;;44.60;20.90;;;;;;;1.35;91.65;97129.28;5031939;28;20400;-75
2021/03/19 02:12:18;;;;;;;30.85;15.15;;;;;;;1.25;93.31;97127.84;5031490;28;20025;-75
2021/03/19 02:15:21;;;;;;;28.38;14.38;;;;;;;1.09;95.33;97127.47;5014063;28;20036;-75
2021/03/19 02:18:24;;;;;;;30.25;15.05;;;;;;;1.05;96.58;97119.72;5031977;28;20100;-75
2021/03/19 02:21:27;;;;;;;25.80;13.77;;;;;;;1.09;95.98;97130.09;5014054;28;20068;-75
2021/03/19 02:24:30;;;;;;;26.42;14.38;;;;;;;1.07;94.61;97121.41;5013953;28;20036;-75
2021/03/19 02:27:13;;;;;;;;;;;;;;;1.04;94.72;97124.13;5032077;28;20021;-75
2021/03/19 02:30:16;;;;;;;21.13;11.68;;;;;;;0.92;94.43;97126.28;5031491;28;19959;-75
2021/03/19 02:32:42;;;;;;;25.20;12.02;;;;;;;0.89;94.33;97119.31;5031591;28;20030;-75
2021/03/19 02:35:10;;;;;;;23.60;12.02;;;;;;;0.90;94.03;97130.72;5013820;28;20596;-75
2021/03/19 02:37:37;;;;;;;22.33;11.85;;;;;;;0.98;94.00;97129.59;5013750;28;20474;-74
2021/03/19 02:40:19;;;;;;;25.25;12.73;;;;;;;0.99;95.74;97130.44;5031295;28;20024;-74
2021/03/19 02:42:44;;;;;;;23.83;11.70;;;;;;;1.00;94.63;97134.78;4997172;28;20081;-76
2021/03/19 02:45:15;;;;;;;25.13;13.05;;;;;;;0.99;96.08;97125.16;5031344;28;20425;-76
2021/03/19 02:47:41;;;;;;;23.25;12.60;;;;;;;0.99;95.46;97126.03;5013394;28;20041;-75
2021/03/19 02:50:08;;;;;;;28.85;15.60;;;;;;;0.98;95.05;97129.59;5013528;28;20026;-76
2021/03/19 02:52:35;;;;;;;36.40;18.00;;;;;;;0.96;94.92;97126.13;4997032;28;20022;-75
2021/03/19 02:55:03;;;;;;;34.35;16.17;;;;;;;1.01;94.54;97128.63;5031742;28;20033;-74
2021/03/19 02:57:28;;;;;;;31.35;15.18;;;;;;;1.09;95.46;97126.59;4997042;28;20033;-74
2021/03/19 02:59:54;;;;;;;28.25;14.50;;;;;;;1.09;95.28;97131.88;4997323;28;20025;-75
2021/03/19 03:02:19;;;;;;;25.48;13.23;;;;;;;1.08;95.21;97136.28;5013676;28;20083;-75
2021/03/19 03:04:45;;;;;;;33.45;14.20;;;;;;;1.01;95.99;97133.91;5013526;28;20033;-75
2021/03/19 03:07:29;;;;;;;33.10;14.82;;;;;;;1.02;95.01;97133.84;5013574;28;20108;-75
2021/03/19 03:09:54;;;;;;;26.83;13.93;;;;;;;1.01;95.96;97126.00;4997044;28;20056;-75
2021/03/19 03:12:22;;;;;;;25.15;13.45;;;;;;;1.06;96.83;97137.25;4997094;28;20053;-75
2021/03/19 03:14:47;;;;;;;26.92;14.50;;;;;;;1.06;96.17;97126.72;5013299;28;20029;-74
2021/03/19 03:17:13;;;;;;;32.22;16.15;;;;;;;1.08;96.35;97135.41;5031109;28;20397;-75
2021/03/19 03:19:39;;;;;;;34.20;17.33;;;;;;;1.17;96.40;97145.66;5031108;28;20481;-74
2021/03/19 03:22:05;;;;;;;34.30;17.15;;;;;;;1.20;97.20;97140.28;5014046;28;20032;-75
2021/03/19 03:24:31;;;;;;;42.72;21.42;;;;;;;1.26;96.71;97150.63;5017564;28;20109;-74
2021/03/19 03:26:57;;;;;;;54.55;24.17;;;;;;;1.25;95.94;97143.66;5017437;28;20099;-75
2021/03/19 03:29:24;;;;;;;46.90;22.77;;;;;;;1.23;95.25;97136.72;5000993;28;20071;-75
2021/03/19 03:31:51;;;;;;;44.40;22.08;;;;;;;1.27;95.69;97141.81;5000825;28;20124;-74
2021/03/19 03:34:16;;;;;;;38.85;21.48;;;;;;;1.34;95.52;97132.81;5017294;28;20428;-76
2021/03/19 03:36:42;;;;;;;36.88;20.55;;;;;;;1.29;95.18;97141.78;5017113;28;20112;-74
2021/03/19 03:39:13;;;;;;;38.97;19.70;;;;;;;1.29;95.84;97142.66;5017200;28;20500;-74
2021/03/19 03:41:39;;;;;;;36.67;19.77;;;;;;;1.32;96.17;97139.94;5016989;28;20045;-74
2021/03/19 03:44:05;;;;;;;39.85;20.25;;;;;;;1.24;97.08;97133.16;5034745;28;20107;-74
2021/03/19 03:46:31;;;;;;;39.17;20.10;;;;;;;1.09;96.53;97131.88;5016970;28;20076;-75
2021/03/19 03:48:57;;;;;;;52.35;23.27;;;;;;;1.10;96.26;97128.34;5017002;28;20029;-76
2021/03/19 03:51:27;;;;;;;48.05;23.70;;;;;;;1.04;97.07;97128.53;5017164;28;20029;-77
2021/03/19 03:53:53;;;;;;;49.80;23.10;;;;;;;0.92;97.55;97131.56;5016795;28;20127;-76
2021/03/19 03:56:21;;;;;;;46.45;22.85;;;;;;;0.88;99.07;97135.19;5000382;28;20045;-75
2021/03/19 03:58:46;;;;;;;43.58;22.05;;;;;;;0.89;99.02;97137.75;5016697;28;20029;-75
2021/03/19 04:01:12;;;;;;;55.40;25.02;;;;;;;0.91;99.00;97133.31;5016832;28;20021;-75
2021/03/19 04:03:38;;;;;;;47.65;21.90;;;;;;;0.88;99.60;97132.53;5016683;28;20037;-75
2021/03/19 04:06:05;;;;;;;45.63;20.98;;;;;;;0.92;98.49;97136.81;5016688;28;20025;-75
2021/03/19 04:08:31;;;;;;;43.60;21.48;;;;;;;0.91;98.73;97142.97;5016686;28;20111;-75
2021/03/19 04:11:00;;;;;;;40.38;20.20;;;;;;;0.86;99.28;97147.53;4999849;28;20171;-75
2021/03/19 04:13:27;;;;;;;38.17;19.70;;;;;;;0.86;99.04;97140.47;5034320;28;20069;-76
2021/03/19 04:15:54;;;;;;;41.13;19.67;;;;;;;0.85;99.33;97149.31;5016526;28;20025;-76
2021/03/19 04:18:20;;;;;;;43.70;21.02;;;;;;;0.92;98.85;97149.97;5016345;28;20413;-75
2021/03/19 04:20:48;;;;;;;39.25;20.45;;;;;;;0.93;99.14;97151.69;5033819;28;20021;-75
2021/03/19 04:23:15;;;;;;;43.45;22.58;;;;;;;0.96;98.51;97151.59;5016288;28;20033;-76
2021/03/19 04:25:40;;;;;;;45.22;23.15;;;;;;;0.94;99.12;97145.53;5016086;28;20037;-76
2021/03/19 04:28:12;;;;;;;39.35;20.83;;;;;;;1.01;99.01;97152.31;5033949;28;20037;-77
2021/03/19 04:30:41;;;;;;;38.13;20.02;;;;;;;1.00;98.21;97158.50;5016385;28;20026;-76
2021/03/19 04:33:15;;;;;;;41.85;20.48;;;;;;;1.09;98.46;97160.84;5033726;28;20030;-76
2021/03/19 04:35:40;;;;;;;44.78;23.42;;;;;;;1.15;97.94;97168.56;5033754;28;20025;-76
2021/03/19 04:38:12;;;;;;;41.40;22.02;;;;;;;1.09;99.38;97158.22;5033495;28;20032;-75
2021/03/19 04:40:41;;;;;;;57.15;25.83;;;;;;;1.21;98.82;97170.13;5016305;28;20065;-75
2021/03/19 04:43:08;;;;;;;54.20;25.90;;;;;;;1.16;97.89;97174.69;5033611;28;20029;-76
2021/03/19 04:45:37;;;;;;;55.03;27.13;;;;;;;1.16;97.36;97166.78;5015799;28;20049;-76
2021/03/19 04:48:03;;;;;;;48.45;23.25;;;;;;;1.23;97.34;97181.50;5015651;28;20040;-76
2021/03/19 04:50:28;;;;;;;47.78;23.48;;;;;;;1.17;96.11;97179.06;4999171;28;20029;-76
2021/03/19 04:52:54;;;;;;;44.78;23.10;;;;;;;1.16;96.36;97185.22;5033327;28;20021;-76
2021/03/19 04:55:19;;;;;;;44.03;22.92;;;;;;;1.16;96.92;97186.09;5015969;28;20029;-74
2021/03/19 04:57:45;;;;;;;66.68;29.80;;;;;;;1.16;96.97;97191.34;4998961;28;20504;-75
2021/03/19 05:00:13;;;;;;;47.40;23.50;;;;;;;1.10;96.74;97191.53;5015629;28;20018;-74
2021/03/19 05:02:42;;;;;;;47.17;22.48;;;;;;;1.08;98.21;97185.44;5015494;28;20497;-76
2021/03/19 05:05:15;;;;;;;40.97;21.33;;;;;;;1.14;98.64;97195.78;5015291;28;20025;-75
2021/03/19 05:07:40;;;;;;;41.70;20.30;;;;;;;1.17;98.24;97192.22;5033216;28;20029;-76
2021/03/19 05:10:07;;;;;;;36.55;18.23;;;;;;;1.09;98.33;97202.97;4998787;28;20504;-75
2021/03/19 05:12:33;;;;;;;38.80;18.60;;;;;;;1.10;98.05;97207.34;5015459;28;20112;-76
2021/03/19 05:14:58;;;;;;;37.88;19.20;;;;;;;1.03;98.37;97198.75;5015885;28;20109;-82
2021/03/19 05:17:24;;;;;;;34.17;19.05;;;;;;;1.03;98.72;97209.28;5015923;28;20029;-77
2021/03/19 05:23:23;;;;;;;48.70;24.02;;;;;;;1.00;97.55;97211.16;5003289;28;20065;-78
2021/03/19 05:25:50;;;;;;;54.40;26.75;;;;;;;0.96;98.11;97218.28;5032760;28;20056;-75
2021/03/19 05:28:16;;;;;;;59.05;30.17;;;;;;;0.99;98.71;97210.28;5015980;28;20033;-79
2021/03/19 05:30:42;;;;;;;54.55;26.58;;;;;;;1.07;99.04;97218.84;5015484;28;20022;-75
2021/03/19 05:33:08;;;;;;;53.70;26.58;;;;;;;1.14;98.53;97230.03;4998519;28;20082;-76
2021/03/19 05:35:34;;;;;;;52.38;24.88;;;;;;;1.21;97.94;97228.06;5011204;28;20025;-76
2021/03/19 05:37:59;;;;;;;54.75;25.33;;;;;;;1.28;96.44;97225.22;4995697;28;20040;-76
2021/03/19 05:40:41;;;;;;;41.88;21.98;;;;;;;1.30;96.98;97235.69;5029783;28;20021;-76
2021/03/19 05:43:29;;;;;;;41.65;20.63;;;;;;;1.38;96.15;97236.34;5010441;28;20108;-76
2021/03/19 05:46:04;;;;;;;37.95;16.98;;;;;;;1.41;94.86;97242.38;5010961;28;20045;-76
2021/03/19 05:48:44;;;;;;;33.33;16.40;;;;;;;1.31;95.02;97242.69;5012140;28;20092;-76
2021/03/19 05:51:40;;;;;;;28.63;15.40;;;;;;;1.44;94.98;97242.28;5029700;28;20034;-76
2021/03/19 05:54:25;;;;;;;27.63;13.50;;;;;;;1.57;94.37;97246.22;5016308;28;20049;-76
2021/03/19 05:57:00;;;;;;;25.75;13.52;;;;;;;1.68;93.77;97247.69;5011712;28;20131;-76
2021/03/19 05:59:33;;;;;;;28.23;14.73;;;;;;;1.89;90.96;97247.84;5029100;28;20040;-76
2021/03/19 06:02:00;;;;;;;40.55;18.38;;;;;;;2.15;90.36;97255.75;5011932;28;20455;-76
2021/03/19 06:04:27;;;;;;;75.80;34.05;;;;;;;2.34;89.19;97250.72;5011817;28;20071;-76
2021/03/19 06:07:00;;;;;;;106.85;43.65;;;;;;;2.76;87.11;97258.06;5011516;28;20996;-76
2021/03/19 06:09:27;;;;;;;;;;;;;;;3.07;84.04;97261.31;4995747;28;20036;-76
2021/03/19 06:11:58;;;;;;;153.98;57.03;;;;;;;4.14;79.31;97261.47;5010988;28;20289;-76
2021/03/19 06:14:25;;;;;;;134.70;59.17;;;;;;;5.24;73.25;97266.38;5011718;28;20048;-76
2021/03/19 06:16:56;;;;;;;114.70;49.80;;;;;;;6.03;68.47;97258.19;5011231;28;20025;-75
2021/03/19 06:19:38;;;;;;;111.82;47.35;;;;;;;6.59;65.84;97270.47;5011701;28;20405;-76
2021/03/19 06:22:17;;;;;;;75.07;33.30;;;;;;;6.58;64.06;97271.41;4994886;28;20029;-76
2021/03/19 06:24:44;;;;;;;85.00;39.03;;;;;;;6.40;65.35;97275.84;5011379;28;20079;-77
2021/03/19 06:27:21;;;;;;;106.00;46.85;;;;;;;6.41;65.50;97277.56;5011322;28;20026;-77
2021/03/19 06:29:51;;;;;;;78.63;38.25;;;;;;;6.56;64.95;97279.44;5011169;28;20040;-76
2021/03/19 06:32:19;;;;;;;85.78;39.83;;;;;;;6.61;63.92;97284.56;5011350;28;20036;-75
2021/03/19 06:35:00;;;;;;;80.53;39.20;;;;;;;7.25;62.54;97287.41;5010649;28;20044;-76
2021/03/19 06:37:33;;;;;;;70.13;33.03;;;;;;;7.77;59.86;97280.97;5028855;28;20037;-76
2021/03/19 06:40:05;;;;;;;55.35;28.10;;;;;;;8.99;55.70;97283.66;4994585;28;20025;-76
2021/03/19 06:42:33;;;;;;;43.78;23.83;;;;;;;9.86;50.79;97289.84;4995358;28;20120;-77
2021/03/19 06:45:13;;;;;;;51.42;26.67;;;;;;;10.52;48.96;97287.31;5011335;28;20034;-76
2021/03/19 06:47:59;;;;;;;53.25;29.23;;;;;;;11.78;45.11;97281.34;5028401;28;20056;-78
2021/03/19 06:50:25;;;;;;;90.80;42.17;;;;;;;12.78;43.00;97288.22;5005576;28;20044;-76
2021/03/19 06:52:53;;;;;;;70.32;35.72;;;;;;;13.51;41.06;97288.84;5028559;28;20566;-75
2021/03/19 06:55:36;;;;;;;45.95;26.77;;;;;;;13.96;40.10;97286.22;4994612;28;20045;-76
2021/03/19 06:58:01;;;;;;;;;;;;;;;14.79;37.94;97286.59;5009936;28;20064;-76
2021/03/19 07:00:43;;;;;;;42.60;25.25;;;;;;;15.03;36.91;97284.56;4991161;28;19964;-77
2021/03/19 07:03:47;;;;;;;38.25;23.15;;;;;;;16.03;33.41;97270.47;4992298;28;20098;-77
2021/03/19 07:06:33;;;;;;;44.80;27.98;;;;;;;15.94;34.33;97282.94;4951020;28;20078;-77
2021/03/19 07:09:20;;;;;;;51.83;29.50;;;;;;;16.24;33.55;97277.53;5007176;28;20117;-77
2021/03/19 07:11:56;;;;;;;37.28;23.75;;;;;;;16.86;32.53;97278.31;5010354;28;20490;-76
2021/03/19 07:15:00;;;;;;;37.75;24.05;;;;;;;15.89;34.31;97276.25;4993989;28;20424;-77
2021/03/19 07:17:48;;;;;;;53.15;27.23;;;;;;;16.40;34.04;97271.59;5027707;28;20045;-76
2021/03/19 07:20:27;;;;;;;66.38;38.28;;;;;;;16.65;36.14;97287.34;5028116;28;20037;-76
2021/03/19 07:23:04;;;;;;;80.35;45.47;;;;;;;16.36;35.28;97281.00;5010229;28;20033;-76
2021/03/19 07:25:45;;;;;;;71.45;39.65;;;;;;;15.87;36.66;97287.19;5010617;28;20029;-77
2021/03/19 07:28:32;;;;;;;61.95;38.05;;;;;;;16.02;37.80;97301.16;5028209;28;20072;-76
2021/03/19 07:31:23;;;;;;;58.08;32.92;;;;;;;15.92;37.94;97300.25;5010382;28;20053;-77
2021/03/19 07:34:14;;;;;;;48.55;28.17;;;;;;;16.74;35.99;97297.31;4992626;28;20056;-77
2021/03/19 07:36:51;;;;;;;57.92;33.95;;;;;;;17.32;34.19;97283.84;5028059;28;20478;-78
2021/03/19 07:39:36;;;;;;;55.55;31.75;;;;;;;15.89;36.59;97284.31;5010397;28;20104;-78
2021/03/19 07:42:20;;;;;;;40.17;22.85;;;;;;;15.48;37.39;97280.69;5023996;28;20025;-77
2021/03/19 07:45:07;;;;;;;34.70;20.85;;;;;;;16.08;35.49;97282.59;5028221;28;20467;-77
2021/03/19 07:48:15;;;;;;;35.25;20.48;;;;;;;16.04;35.74;97285.69;5009880;28;20386;-75
2021/03/19 07:50:50;;;;;;;28.48;16.60;;;;;;;16.33;34.36;97275.00;5010278;28;21066;-76
2021/03/19 07:53:28;;;;;;;22.25;13.05;;;;;;;15.65;33.90;97265.75;5028014;28;20029;-78
2021/03/19 07:56:05;;;;;;;20.00;12.35;;;;;;;17.20;32.19;97266.06;5010277;28;20025;-78
2021/03/19 07:58:52;;;;;;;18.92;12.93;;;;;;;18.21;32.53;97269.03;5009789;28;20029;-77
2021/03/19 08:01:52;;;;;;;28.67;13.60;;;;;;;18.80;29.26;97263.16;5027856;28;20041;-76
2021/03/19 08:04:56;;;;;;;20.75;12.18;;;;;;;18.73;28.91;97270.19;5007073;28;20041;-77
2021/03/19 08:07:35;;;;;;;11.95;8.18;;;;;;;18.03;29.41;97258.09;4950527;28;20577;-76
2021/03/19 08:10:06;;;;;;;12.68;8.23;;;;;;;18.78;28.67;97252.47;4969913;28;20495;-76
2021/03/19 08:12:41;;;;;;;19.05;12.32;;;;;;;18.86;27.65;97247.13;4997015;28;20079;-76
2021/03/19 08:15:40;;;;;;;22.60;11.63;;;;;;;19.77;26.92;97240.50;5013960;28;20072;-76
2021/03/19 08:18:25;;;;;;;19.58;10.73;;;;;;;18.94;28.58;97239.09;5013942;28;20424;-76
2021/03/19 08:21:17;;;;;;;10.55;7.50;;;;;;;19.39;28.68;97247.16;5013671;28;20017;-75
2021/03/19 08:24:01;;;;;;;18.85;7.20;;;;;;;20.20;25.89;97236.84;4996893;28;20171;-76
2021/03/19 08:26:49;;;;;;;14.05;7.25;;;;;;;19.50;28.36;97234.38;5013467;28;20030;-76
2021/03/19 08:29:36;;;;;;;8.70;6.68;;;;;;;16.82;29.23;97244.44;5031071;28;20546;-77
2021/03/19 08:32:39;;;;;;;9.05;6.97;;;;;;;18.21;28.60;97242.78;5031131;28;20076;-77
2021/03/19 08:35:11;;;;;;;;;;;;;;;19.10;27.63;97243.81;5009476;28;20045;-75
2021/03/19 08:37:46;;;;;;;19.90;8.95;;;;;;;19.65;27.61;97236.34;5012975;28;19928;-76
2021/03/19 08:40:40;;;;;;;15.60;9.50;;;;;;;18.32;29.55;97247.16;5013682;28;20025;-76
2021/03/19 08:43:11;;;;;;;54.05;32.00;;;;;;;18.45;28.57;97246.81;5010540;28;20437;-75
2021/03/19 08:45:37;;;;;;;34.78;22.60;;;;;;;19.72;28.02;97234.69;5012496;28;20115;-77
2021/03/19 08:48:04;;;;;;;19.98;13.32;;;;;;;20.75;25.69;97236.41;5013380;28;20029;-77
2021/03/19 08:50:37;;;;;;;11.98;8.73;;;;;;;19.22;27.78;97218.19;5012796;28;20067;-76
2021/03/19 08:53:05;;;;;;;21.13;10.25;;;;;;;18.91;29.58;97247.53;4996939;28;20029;-76
2021/03/19 08:55:32;;;;;;;15.35;9.57;;;;;;;17.99;29.57;97236.91;5012744;28;20482;-76
2021/03/19 08:58:26;;;;;;;14.15;8.70;;;;;;;18.26;30.16;97239.63;5012958;28;20108;-77
2021/03/19 09:00:55;;;;;;;39.47;22.85;;;;;;;19.34;29.53;97235.91;5030811;28;20079;-77
2021/03/19 09:03:42;;;;;;;12.10;8.50;;;;;;;19.76;26.54;97229.78;5012988;28;20037;-75
2021/03/19 09:06:24;;;;;;;15.27;10.40;;;;;;;19.77;27.09;97224.22;5013161;28;20034;-78
2021/03/19 09:08:59;;;;;;;;;;;;;;;19.54;26.56;97209.44;5030554;28;20029;-77
2021/03/19 09:11:50;;;;;;;12.20;8.35;;;;;;;20.12;24.93;97206.09;5012345;28;19921;-77
2021/03/19 09:14:30;;;;;;;13.43;8.30;;;;;;;20.60;24.92;97206.28;5012608;28;20068;-77
2021/03/19 09:16:57;;;;;;;11.25;7.45;;;;;;;19.33;26.19;97203.50;4996396;28;20025;-77
2021/03/19 09:19:28;;;;;;;11.48;8.38;;;;;;;19.17;25.22;97197.94;5011848;28;20067;-76
2021/03/19 09:22:15;;;;;;;32.95;20.23;;;;;;;19.99;25.66;97203.81;5012022;28;20498;-77
2021/03/19 09:24:41;;;;;;;13.73;8.40;;;;;;;20.38;24.50;97194.16;5029980;28;20092;-79
2021/03/19 09:27:33;;;;;;;17.55;8.45;;;;;;;19.68;24.39;97183.59;5012835;28;20041;-77
2021/03/19 09:30:14;;;;;;;11.63;7.75;;;;;;;20.13;26.25;97192.31;4991412;28;20582;-77
2021/03/19 09:32:41;;;;;;;17.02;6.82;;;;;;;19.40;25.85;97188.34;5029631;28;20067;-77
2021/03/19 09:35:33;;;;;;;13.10;8.60;;;;;;;18.80;26.15;97203.53;5013393;28;20082;-77
2021/03/19 09:37:59;;;;;;;11.00;7.18;;;;;;;19.42;27.03;97200.72;4997620;28;20030;-76
2021/03/19 09:40:44;;;;;;;10.45;5.90;;;;;;;18.71;24.71;97190.91;5015036;28;20072;-77
2021/03/19 09:43:38;;;;;;;9.55;7.20;;;;;;;18.47;25.91;97196.88;5015082;28;20460;-77
2021/03/19 09:46:11;;;;;;;16.63;9.77;;;;;;;20.17;26.61;97198.28;5014840;28;20493;-76
2021/03/19 09:48:37;;;;;;;19.23;13.57;;;;;;;20.64;24.27;97195.94;5014781;28;20116;-77
2021/03/19 09:51:07;;;;;;;17.10;9.05;;;;;;;21.07;23.05;97177.47;5014800;28;20100;-77
2021/03/19 09:53:36;;;;;;;14.32;9.60;;;;;;;20.77;24.32;97178.13;5014916;28;20029;-77
2021/03/19 09:56:14;;;;;;;14.88;8.27;;;;;;;20.54;24.31;97185.22;5014832;28;20045;-77
2021/03/19 09:58:51;;;;;;;13.32;9.73;;;;;;;21.70;24.22;97190.41;4998155;28;20033;-77
2021/03/19 10:01:28;;;;;;;8.98;7.38;;;;;;;21.33;24.80;97176.50;5014519;28;20172;-76
2021/03/19 10:03:59;;;;;;;9.98;7.07;;;;;;;20.49;23.86;97193.00;5014229;28;20021;-76
2021/03/19 10:06:29;;;;;;;12.15;7.78;;;;;;;19.60;26.10;97178.97;5032175;28;20037;-76
2021/03/19 10:09:09;;;;;;;9.85;7.80;;;;;;;19.66;24.80;97188.31;5032023;28;20018;-77
2021/03/19 10:11:35;;;;;;;13.68;8.00;;;;;;;20.93;25.70;97197.19;5031794;28;20120;-78
2021/03/19 10:14:12;;;;;;;9.75;7.22;;;;;;;20.76;24.53;97184.59;5031807;28;20060;-77
2021/03/19 10:16:37;;;;;;;8.90;7.20;;;;;;;21.67;22.09;97179.88;5014001;28;20025;-77
2021/03/19 10:19:14;;;;;;;9.05;7.47;;;;;;;22.39;22.76;97188.88;5014279;28;20025;-77
2021/03/19 10:21:51;;;;;;;9.52;7.35;;;;;;;21.59;22.33;97171.72;5013993;28;20481;-78
2021/03/19 10:24:25;;;;;;;9.25;7.63;;;;;;;21.14;24.85;97177.69;5014855;28;20033;-77
2021/03/19 10:26:57;;;;;;;10.65;7.22;;;;;;;21.60;24.36;97178.84;5014066;28;20033;-78
2021/03/19 10:29:24;;;;;;;14.85;7.63;;;;;;;22.59;22.04;97168.31;5014390;28;20021;-78
2021/03/19 10:31:54;;;;;;;12.07;8.57;;;;;;;21.60;22.58;97167.94;4997115;28;20076;-76
2021/03/19 10:34:31;;;;;;;10.38;7.47;;;;;;;19.19;25.03;97164.25;5013826;28;20221;-77
2021/03/19 10:37:20;;;;;;;8.65;6.97;;;;;;;17.38;27.79;97169.69;5013462;28;20120;-77
2021/03/19 10:39:51;;;;;;;10.85;7.43;;;;;;;16.97;28.53;97172.78;4997019;28;20045;-76
2021/03/19 10:42:42;;;;;;;12.33;8.00;;;;;;;17.23;28.95;97179.25;5014167;28;20052;-77
2021/03/19 10:45:29;;;;;;;9.15;7.43;;;;;;;15.51;29.33;97166.31;5013456;28;20026;-76
2021/03/19 10:48:36;;;;;;;10.23;7.32;;;;;;;17.51;29.21;97172.09;5031181;28;20032;-76
2021/03/19 10:51:02;;;;;;;10.82;7.55;;;;;;;19.81;26.86;97175.88;5026996;28;20049;-77
2021/03/19 10:53:38;;;;;;;9.07;6.75;;;;;;;19.15;26.11;97162.00;5013473;28;20036;-77
2021/03/19 10:56:04;;;;;;;9.18;6.70;;;;;;;18.25;26.22;97162.94;5016424;28;20040;-76
2021/03/19 10:58:37;;;;;;;13.70;9.23;;;;;;;17.53;26.67;97165.56;5030899;28;20029;-76
2021/03/19 11:01:34;;;;;;;13.02;7.32;;;;;;;18.22;26.89;97174.09;5013603;28;20469;-77
2021/03/19 11:04:23;;;;;;;11.05;7.65;;;;;;;18.05;26.79;97165.94;5013326;28;20041;-77
2021/03/19 11:06:48;;;;;;;13.27;6.82;;;;;;;18.93;25.75;97157.91;5030882;28;20034;-76
2021/03/19 11:09:20;;;;;;;24.70;14.32;;;;;;;19.44;25.35;97157.19;5013464;28;20040;-77
2021/03/19 11:11:49;;;;;;;19.25;6.78;;;;;;;19.96;26.32;97150.66;4996552;28;20036;-77
2021/03/19 11:14:19;;;;;;;12.30;8.40;;;;;;;20.99;25.14;97153.00;5013020;28;20386;-76
2021/03/19 11:16:47;;;;;;;8.48;6.88;;;;;;;21.90;23.64;97131.00;5013279;28;20040;-76
2021/03/19 11:19:21;;;;;;;11.57;6.80;;;;;;;22.81;21.22;97136.69;4996940;28;20059;-77
2021/03/19 11:21:59;;;;;;;19.67;11.10;;;;;;;23.55;20.87;97135.91;5013207;28;20405;-75
2021/03/19 11:24:28;;;;;;;21.05;12.73;;;;;;;23.06;22.96;97130.88;5013203;28;20405;-77
2021/03/19 11:27:16;;;;;;;9.70;7.38;;;;;;;23.07;22.11;97118.91;5013003;28;20112;-76
2021/03/19 11:29:42;;;;;;;22.33;15.32;;;;;;;24.09;20.85;97126.41;5013190;28;20461;-76
2021/03/19 11:32:11;;;;;;;8.35;6.90;;;;;;;22.66;21.86;97117.53;5005010;28;20022;-77
2021/03/19 11:34:51;;;;;;;26.67;17.65;;;;;;;21.63;22.70;97111.28;5030726;28;20033;-76
2021/03/19 11:37:23;;;;;;;11.27;7.55;;;;;;;22.28;20.85;97115.66;4989805;28;20499;-77
2021/03/19 11:40:08;;;;;;;9.80;6.70;;;;;;;21.79;21.44;97109.53;5030513;28;20470;-78
2021/03/19 11:42:55;;;;;;;18.02;11.57;;;;;;;23.03;19.96;97106.69;5030820;28;20026;-77
2021/03/19 11:45:26;;;;;;;12.82;8.57;;;;;;;22.87;20.01;97092.31;5016801;28;20143;-78
2021/03/19 11:47:58;;;;;;;8.70;6.38;;;;;;;21.31;20.82;97102.34;5016886;28;20409;-78
2021/03/19 11:50:24;;;;;;;17.40;10.95;;;;;;;20.34;22.05;97096.84;5016868;28;20481;-77
2021/03/19 11:53:03;;;;;;;10.32;7.40;;;;;;;18.98;23.18;97095.94;5016887;28;20118;-78
2021/03/19 11:55:32;;;;;;;15.45;11.30;;;;;;;17.33;25.17;97099.84;5016878;28;20474;-76
2021/03/19 11:57:58;;;;;;;12.05;7.80;;;;;;;16.35;26.20;97095.72;5016605;28;20040;-77
2021/03/19 12:00:27;;;;;;;9.02;6.75;;;;;;;16.04;26.54;97097.66;5016975;28;20037;-77
2021/03/19 12:02:57;;;;;;;30.55;17.23;;;;;;;16.05;27.05;97104.78;5034363;28;20025;-76
2021/03/19 12:05:24;;;;;;;9.43;7.18;;;;;;;15.41;27.34;97100.72;5017027;28;20030;-76